createdAt,value
2023-01-09T00:01:43.350Z,29.70
2023-01-09T00:06:46.843Z,29.94
2023-01-09T00:11:48.247Z,29.65
2023-01-09T00:16:49.763Z,29.62
2023-01-09T00:21:51.236Z,29.74
2023-01-09T00:26:52.618Z,29.85
2023-01-09T00:31:53.991Z,29.81
2023-01-09T00:36:56.307Z,29.83
2023-01-09T00:41:58.600Z,29.43
2023-01-09T00:47:02.704Z,29.81
2023-01-09T00:52:04.302Z,29.79
2023-01-09T00:57:05.736Z,29.62
2023-01-09T01:02:07.405Z,29.49
2023-01-09T01:07:27.422Z,29.41
2023-01-09T01:12:28.823Z,29.69
2023-01-09T01:17:30.197Z,29.48
2023-01-09T01:22:31.583Z,29.35
2023-01-09T01:27:32.959Z,29.34
2023-01-09T01:32:34.414Z,29.39
2023-01-09T01:37:35.969Z,29.46
2023-01-09T01:42:37.417Z,29.31
2023-01-09T01:47:49.884Z,29.21
2023-01-09T01:53:03.330Z,29.35
2023-01-09T01:58:05.801Z,29.57
2023-01-09T02:03:07.374Z,29.17
2023-01-09T02:08:08.756Z,29.29
2023-01-09T02:13:10.193Z,29.36
2023-01-09T02:18:39.380Z,29.18
2023-01-09T02:24:15.954Z,29.43
2023-01-09T02:30:04.948Z,28.87
2023-01-09T02:35:43.797Z,29.31
2023-01-09T02:41:00.201Z,29.33
2023-01-09T02:46:01.687Z,29.20
2023-01-09T02:51:11.351Z,28.93
2023-01-09T02:56:20.192Z,29.12
2023-01-09T03:01:30.184Z,29.43
2023-01-09T03:06:37.255Z,29.63
2023-01-09T03:11:41.082Z,29.39
2023-01-09T03:16:42.984Z,29.66
2023-01-09T03:21:44.767Z,29.66
2023-01-09T03:26:46.175Z,29.93
2023-01-09T03:31:47.576Z,29.84
2023-01-09T03:36:48.970Z,29.99
2023-01-09T03:41:50.352Z,30.10
2023-01-09T03:46:51.782Z,30.24
2023-01-09T03:51:53.229Z,30.11
2023-01-09T03:56:54.625Z,29.92
2023-01-09T04:01:56.117Z,30.17
2023-01-09T04:06:57.504Z,30.07
2023-01-09T04:11:58.898Z,30.46
2023-01-09T04:17:00.277Z,30.02
2023-01-09T04:22:01.659Z,30.35
2023-01-09T04:27:03.074Z,30.23
2023-01-09T04:32:04.674Z,30.10
2023-01-09T04:37:06.062Z,30.09
2023-01-09T04:42:07.448Z,30.10
2023-01-09T04:47:08.834Z,30.13
2023-01-09T04:52:10.231Z,30.11
2023-01-09T04:57:11.617Z,29.92
2023-01-09T05:02:13.088Z,29.91
2023-01-09T05:07:14.648Z,30.13
2023-01-09T05:12:16.084Z,30.07
2023-01-09T05:17:17.475Z,30.31
2023-01-09T05:22:18.873Z,29.91
2023-01-09T05:27:20.274Z,29.87
2023-01-09T05:32:21.657Z,29.94
2023-01-09T05:37:23.078Z,29.85
2023-01-09T05:42:24.462Z,29.79
2023-01-09T05:47:25.850Z,29.83
2023-01-09T05:52:27.238Z,29.59
2023-01-09T05:57:28.766Z,29.95
2023-01-09T06:02:30.291Z,29.60
2023-01-09T06:07:31.781Z,29.61
2023-01-09T06:12:33.166Z,29.74
2023-01-09T06:17:34.535Z,29.75
2023-01-09T06:22:35.929Z,29.60
2023-01-09T06:27:37.308Z,29.38
2023-01-09T06:32:38.685Z,29.38
2023-01-09T06:37:40.059Z,29.54
2023-01-09T06:42:47.448Z,29.58
2023-01-09T06:47:49.917Z,29.29
2023-01-09T06:52:51.285Z,29.36
2023-01-09T06:57:52.790Z,29.51
2023-01-09T07:02:54.227Z,29.57
2023-01-09T07:07:56.810Z,29.38
2023-01-09T07:12:58.193Z,29.15
2023-01-09T07:17:59.583Z,29.23
2023-01-09T07:23:00.989Z,29.36
2023-01-09T07:28:02.414Z,29.36
2023-01-09T07:33:04.181Z,29.08
2023-01-09T07:38:05.658Z,29.05
2023-01-09T07:43:07.037Z,29.28
2023-01-09T07:48:08.491Z,29.91
2023-01-09T07:53:09.869Z,30.23
2023-01-09T07:58:11.258Z,30.26
2023-01-09T08:03:12.772Z,29.78
2023-01-09T08:08:14.940Z,30.05
2023-01-09T08:13:16.391Z,29.94
2023-01-09T08:18:17.776Z,29.70
2023-01-09T08:23:20.214Z,29.36
2023-01-09T08:28:21.616Z,29.49
2023-01-09T08:33:23.026Z,29.62
2023-01-09T08:38:24.428Z,29.65
2023-01-09T08:43:44.523Z,29.58
2023-01-09T08:48:45.996Z,29.39
2023-01-09T08:53:47.389Z,29.58
2023-01-09T08:58:48.769Z,29.95
2023-01-09T09:03:50.179Z,30.10
2023-01-09T09:08:51.574Z,29.77
2023-01-09T09:13:52.960Z,30.12
2023-01-09T09:18:54.344Z,30.18
2023-01-09T09:23:57.730Z,30.12
2023-01-09T09:28:59.114Z,30.39
2023-01-09T09:34:00.505Z,30.35
2023-01-09T09:39:02.636Z,30.77
2023-01-09T09:44:51.130Z,30.93
2023-01-09T09:50:26.257Z,31.20
2023-01-09T09:55:31.251Z,30.93
2023-01-09T10:00:32.658Z,31.10
2023-01-09T10:05:35.326Z,31.05
2023-01-09T10:10:47.074Z,30.56
2023-01-09T10:16:14.095Z,30.81
2023-01-09T10:21:22.723Z,30.91
2023-01-09T10:26:28.137Z,31.35
2023-01-09T10:31:32.451Z,31.31
2023-01-09T10:37:01.930Z,31.77
2023-01-09T10:42:12.535Z,32.03
2023-01-09T10:47:29.080Z,32.41
2023-01-09T10:52:34.699Z,32.10
2023-01-09T10:57:45.855Z,32.17
2023-01-09T11:02:47.391Z,31.59
2023-01-09T11:07:53.331Z,31.22
2023-01-09T11:13:14.199Z,31.00
2023-01-09T11:18:25.601Z,30.82
2023-01-09T11:23:29.000Z,30.52
2023-01-09T11:28:30.455Z,30.60
2023-01-09T11:33:34.931Z,29.81
2023-01-09T11:38:53.300Z,29.50
2023-01-09T11:43:56.694Z,29.62
2023-01-09T11:48:58.577Z,29.58
2023-01-09T11:54:25.192Z,29.55
2023-01-09T11:59:28.343Z,29.33
2023-01-09T12:04:48.347Z,28.81
2023-01-09T12:09:49.611Z,28.85
2023-01-09T12:15:28.637Z,28.87
2023-01-09T12:20:48.186Z,28.50
2023-01-09T12:25:54.860Z,28.32
2023-01-09T12:31:06.993Z,28.36
2023-01-09T12:36:24.232Z,28.56
2023-01-09T12:41:38.270Z,28.32
2023-01-09T12:46:55.498Z,28.62
2023-01-09T12:52:01.314Z,28.55
2023-01-09T12:57:22.874Z,28.74
2023-01-09T13:02:32.501Z,28.44
2023-01-09T13:08:01.158Z,28.48
2023-01-09T13:13:07.967Z,28.47
2023-01-09T13:18:21.963Z,28.63
2023-01-09T13:23:44.418Z,28.05
2023-01-09T13:28:48.315Z,28.30
2023-01-09T13:33:57.245Z,28.04
2023-01-09T13:38:58.950Z,28.18
2023-01-09T13:44:04.566Z,28.04
2023-01-09T13:49:06.169Z,28.12
2023-01-09T13:54:11.315Z,28.05
2023-01-09T13:59:28.126Z,27.99
2023-01-09T14:04:42.009Z,28.12
2023-01-09T14:09:48.330Z,28.20
2023-01-09T14:14:50.155Z,28.26
2023-01-09T14:19:54.667Z,28.27
2023-01-09T14:24:59.749Z,28.27
2023-01-09T14:30:28.317Z,28.15
2023-01-09T14:35:37.041Z,28.02
2023-01-09T14:40:38.420Z,28.16
2023-01-09T14:45:40.985Z,27.84
2023-01-09T14:50:48.671Z,27.44
2023-01-09T14:55:57.654Z,27.47
2023-01-09T15:01:12.619Z,27.29
2023-01-09T15:06:17.789Z,27.38
2023-01-09T15:11:19.183Z,27.25
2023-01-09T15:16:22.167Z,27.22
2023-01-09T15:21:26.675Z,27.72
2023-01-09T15:26:29.282Z,27.49
2023-01-09T15:31:30.823Z,27.62
2023-01-09T15:36:32.264Z,27.47
2023-01-09T15:41:52.247Z,27.49
2023-01-09T15:46:56.829Z,27.08
2023-01-09T15:51:58.243Z,27.18
2023-01-09T15:57:24.206Z,27.03
2023-01-09T16:02:44.316Z,27.25
2023-01-09T16:07:46.639Z,27.00
2023-01-09T16:12:48.004Z,26.86
2023-01-09T16:18:22.598Z,26.84
2023-01-09T16:23:34.759Z,26.89
2023-01-09T16:28:36.230Z,26.96
2023-01-09T16:33:38.024Z,27.19
2023-01-09T16:38:41.908Z,27.20
2023-01-09T16:43:43.391Z,27.43
2023-01-09T16:48:44.797Z,27.52
2023-01-09T16:53:46.412Z,27.45
2023-01-09T16:58:47.794Z,27.60
2023-01-09T17:03:49.170Z,27.90
2023-01-09T17:08:51.443Z,28.10
2023-01-09T17:13:52.822Z,28.17
2023-01-09T17:18:54.231Z,27.92
2023-01-09T17:24:14.213Z,28.03
2023-01-09T17:29:15.592Z,27.94
2023-01-09T17:34:16.987Z,28.25
2023-01-09T17:39:18.375Z,28.19
2023-01-09T17:44:19.881Z,28.04
2023-01-09T17:49:21.520Z,27.99
2023-01-09T17:54:23.498Z,27.89
2023-01-09T17:59:26.889Z,28.11
2023-01-09T18:04:28.889Z,28.22
2023-01-09T18:09:30.293Z,28.02
2023-01-09T18:14:31.662Z,27.98
2023-01-09T18:19:33.446Z,27.88
2023-01-09T18:24:34.842Z,27.94
2023-01-09T18:29:36.258Z,27.96
2023-01-09T18:34:38.206Z,28.03
2023-01-09T18:39:39.641Z,27.86
2023-01-09T18:44:41.903Z,27.72
2023-01-09T18:49:43.280Z,27.78
2023-01-09T18:54:44.949Z,27.55
2023-01-09T18:59:46.340Z,27.77
2023-01-09T19:04:47.836Z,27.75
2023-01-09T19:09:49.233Z,27.74
2023-01-09T19:14:51.035Z,27.60
2023-01-09T19:19:52.442Z,27.62
2023-01-09T19:24:53.824Z,27.65
2023-01-09T19:29:55.202Z,27.87
2023-01-09T19:34:56.579Z,27.74
2023-01-09T19:39:57.963Z,27.52
2023-01-09T19:44:59.380Z,27.55
2023-01-09T19:50:00.777Z,27.77
2023-01-09T19:55:02.190Z,27.57
2023-01-09T20:00:03.986Z,27.32
2023-01-09T20:05:05.725Z,27.51
2023-01-09T20:10:07.312Z,27.46
2023-01-09T20:15:14.535Z,27.65
2023-01-09T20:20:16.220Z,27.79
2023-01-09T20:25:17.618Z,27.48
2023-01-09T20:30:19.027Z,27.45
2023-01-09T20:35:22.199Z,27.39
2023-01-09T20:40:23.574Z,27.55
2023-01-09T20:45:25.005Z,27.62
2023-01-09T20:50:26.398Z,27.64
2023-01-09T20:55:27.807Z,27.62
2023-01-09T21:00:31.944Z,27.54
2023-01-09T21:05:33.455Z,27.74
2023-01-09T21:10:34.841Z,27.85
2023-01-09T21:15:37.487Z,27.82
2023-01-09T21:20:39.454Z,27.57
2023-01-09T21:25:40.852Z,27.67
2023-01-09T21:30:42.464Z,27.64
2023-01-09T21:35:43.835Z,27.57
2023-01-09T21:40:48.518Z,27.78
2023-01-09T21:46:08.284Z,27.73
2023-01-09T21:51:09.700Z,27.62
2023-01-09T21:56:11.075Z,27.63
2023-01-09T22:01:12.567Z,27.68
2023-01-09T22:06:13.984Z,27.90
2023-01-09T22:11:16.201Z,27.85
2023-01-09T22:16:17.816Z,27.66
2023-01-09T22:21:19.264Z,27.72
2023-01-09T22:26:20.644Z,27.71
2023-01-09T22:31:22.139Z,27.79
2023-01-09T22:36:23.722Z,28.08
2023-01-09T22:41:25.875Z,27.91
2023-01-09T22:46:27.273Z,27.88
2023-01-09T22:51:28.719Z,27.79
2023-01-09T22:56:32.092Z,27.88
2023-01-09T23:01:33.562Z,28.20
2023-01-09T23:06:34.942Z,28.03
2023-01-09T23:11:54.745Z,28.05
2023-01-09T23:16:56.214Z,27.79
2023-01-09T23:21:59.455Z,27.88
2023-01-09T23:27:00.864Z,28.26
2023-01-09T23:32:02.334Z,27.97
2023-01-09T23:37:08.738Z,28.10
2023-01-09T23:42:29.782Z,27.90
2023-01-09T23:47:31.167Z,27.78
2023-01-09T23:52:32.554Z,28.05
2023-01-09T23:57:33.932Z,27.98
